Mandalay, Burma
Current Conditions -  °F | °C
As of 5:30 PM on Friday 28 Nov 2014 (Local Time) from VYMD Reporting Station
Clear Clear  
Wind Chill: 77°   Ceiling: Unl
Heat Index: 79°   Visibility: 4mi
Dew Point: 64°   Wind: 0mph
Humidity: 65%   Direction: NA
Pressure: 29.83"   Gusts: NA
Location:  21.98°N, 96.09°E
Report Text: VYMD 281130Z 00000KT 6000 NSC 25/18 Q1010 NOSIG
Loading
Personal Weather Stations






























Interactive Weather Map New forecast layout! Learn more

10-Day Weather Forecast

Advertisements
Track Severe Weather on mobile